Terminal Aerodrome Forecast
Issued by NWS

Home | Current Version | Previous Version | Text Only | Print | Product List | Glossary On
Versions: 1 2 3 4 5 6 7 8 9 10 11 12 13 14
000
FTUS43 KPAH 300740 AAA
TAFCGI
TAF AMD
KCGI 300740Z 3008/0106 VRB03KT P6SM BCFG SKC
      TEMPO 3008/3010 1/4SM FG VV002
     FM301000 30005KT P6SM SCT150
     FM301700 26011G18KT P6SM SCT040
     FM010000 24006KT P6SM SCT045=

USA.gov is the U.S. government's official web portal to all federal, state and local government web resources and services.